Aérodrome :
LOGIN :

S'inscrire | Disclaimer

   EN    FR    IT 

 










Légende :    VFR   VFR Marginal   IFR   IFR Intensif   IFR Très Intensif
Visi : 
Plafond : 
>= 8 km
>= 3000ft
5 à 8 km
1000 à 3000 ft
1500m à 5 km
500 à 1000 ft
800 à 1500m
200 à 500 ft
< 800m
< 200 ft
Symboles :   Orages  Brouillard  Fortes neiges  Fortes précipitations  Vent > 20 kt
SIGMETs :   Divers  Orages  Givrage  Turbulence  Onde Orograph.  Cendres Volcan.







- Altitude de l'aérodrome : 46 ft
- Code IATA : SNN


EINN - Shannon

DERNIER METAR :
  • 191300Z 24015KT 9000 -SHRA FEW010 SCT018CB BKN048 05/02 Q1009 NOSIG

METARs EXPIRÉS :
  • 191230Z 25013KT 9999 FEW014 SCT018CB BKN060 05/02 Q1009 NOSIG
  • 191200Z 25010KT 9000 -SHRA SCT018CB BKN045 06/03 Q1009 NOSIG
  • 191130Z 26011KT 9999 FEW014 SCT018CB BKN060 05/02 Q1009 NOSIG
  • 191100Z 25018KT 9999 FEW010 SCT018CB BKN070 04/01 Q1009 NOSIG
  • 191030Z 25012KT 9999 FEW010 FEW018CB BKN200 04/01 Q1009 NOSIG

TAF TAF EINN
Valide du 19 à 12h jusqu'au 20 à 12h UTC


191100Z 1912/2012 25016KT 9999 FEW012 SCT025
TEMPO 1912/1916 27020G32KT 6000 -SHRA SCT012 SCT018CB
PROB40
TEMPO 1915/1922 -SHRA SCT012 SCT018CB
BECMG 1918/1921 24010KT
BECMG 1921/1924 15008KT -RA SCT010 BKN015
TEMPO 1922/2012 6000 -RADZ BKN010
BECMG 2001/2004 10006KT
PROB40 2010/2012 28016KT
Pas de NOTAMs connus pour ce terrain.



MET'MAP, la Météo Aéronautique d'un coup d'oeil ! - Copyright ORBIFLY Décembre 2007 - Disclaimer

ORBIFLY MET'MAP TEAM :

Programmation & Développement : Alexandra Zaïnal
Conception & Développement : Baudouin d'Aumeries
Co-Programmation & Développement : Marc-Olivier Méhu
Soutien technique & logistique : Manuel Goepfert

Contact : metmap@orbifly.com




SOURCES & CREDITS :

   NOAA